Time;durP1;ratioP1;P1;durP2;ratioP2;P2;SDS_P1;SDS_P2;PMS_P1;PMS_P2;Temp;Humidity;BMP_temperature;BMP_pressure;BME280_temperature;BME280_humidity;BME280_pressure;Samples;Min_cycle;Max_cycle;Signal;HPM_P1;HPM_P2
2022/11/26 00:01:19;;;;;;;7.23;5.27;;;3.90;99.90;;;;;;4959121;29;20182;-82
2022/11/26 00:03:45;;;;;;;6.20;5.43;;;3.90;99.90;;;;;;4958811;29;20259;-83
2022/11/26 00:06:36;;;;;;;7.57;5.13;;;3.80;99.90;;;;;;4957863;29;20520;-83
2022/11/26 00:09:05;;;;;;;6.20;4.87;;;3.80;99.90;;;;;;4958777;29;20733;-81
2022/11/26 00:11:31;;;;;;;6.77;4.30;;;3.80;99.90;;;;;;4956687;29;20178;-83
2022/11/26 00:13:57;;;;;;;5.03;4.53;;;3.80;99.90;;;;;;4956703;29;20226;-84
2022/11/26 00:16:22;;;;;;;6.40;5.30;;;3.90;99.90;;;;;;4955852;29;20183;-82
2022/11/26 00:18:48;;;;;;;7.90;5.33;;;3.90;99.90;;;;;;4956346;29;20655;-81
2022/11/26 00:21:23;;;;;;;5.50;4.40;;;3.80;99.90;;;;;;4957308;29;20167;-82
2022/11/26 00:23:53;;;;;;;6.87;5.00;;;3.80;99.90;;;;;;4957045;29;20530;-83
2022/11/26 00:26:23;;;;;;;6.03;5.10;;;3.70;99.90;;;;;;4960857;29;20179;-80
2022/11/26 00:28:55;;;;;;;6.00;5.17;;;3.70;99.90;;;;;;4957090;29;20199;-81
2022/11/26 00:31:20;;;;;;;6.03;5.10;;;3.70;99.90;;;;;;4956174;29;20200;-81
2022/11/26 00:33:46;;;;;;;6.20;4.90;;;3.70;99.90;;;;;;4955863;29;20207;-80
2022/11/26 00:36:32;;;;;;;6.20;5.23;;;3.60;99.90;;;;;;4938349;29;20173;-82
2022/11/26 00:39:15;;;;;;;7.27;4.60;;;3.60;99.90;;;;;;4956044;29;20198;-81
2022/11/26 00:41:45;;;;;;;6.00;5.17;;;3.60;99.90;;;;;;4955860;29;20163;-80
2022/11/26 00:44:23;;;;;;;9.10;6.37;;;3.50;99.90;;;;;;4955991;29;20174;-82
2022/11/26 00:46:50;;;;;;;8.57;5.43;;;3.50;99.90;;;;;;4956185;29;20285;-83
2022/11/26 00:49:16;;;;;;;7.80;5.60;;;3.70;99.90;;;;;;4955940;29;20205;-83
2022/11/26 00:51:43;;;;;;;11.27;7.00;;;3.70;99.90;;;;;;4955535;29;20519;-82
2022/11/26 00:54:15;;;;;;;7.27;6.53;;;3.70;99.90;;;;;;4955785;29;20221;-83
2022/11/26 00:56:41;;;;;;;7.90;6.53;;;3.70;99.90;;;;;;4955884;29;20166;-82
2022/11/26 00:59:13;;;;;;;8.57;6.97;;;3.70;99.90;;;;;;4928986;29;20228;-81
2022/11/26 01:01:39;;;;;;;6.97;5.33;;;3.70;99.90;;;;;;4921371;29;20495;-79
2022/11/26 01:04:05;;;;;;;7.67;5.50;;;3.60;99.90;;;;;;4920959;29;20180;-80
2022/11/26 01:06:49;;;;;;;7.67;5.07;;;3.60;99.90;;;;;;4921096;29;20633;-81
2022/11/26 01:09:19;;;;;;;7.13;4.70;;;3.70;99.90;;;;;;4921529;29;20161;-83
2022/11/26 01:11:45;;;;;;;9.23;6.00;;;3.60;99.90;;;;;;4921669;29;20172;-83
2022/11/26 01:14:16;;;;;;;8.73;6.07;;;3.60;99.90;;;;;;4922480;29;20176;-79
2022/11/26 01:16:44;;;;;;;6.13;5.33;;;3.60;99.90;;;;;;4921048;29;20642;-83
2022/11/26 01:19:14;;;;;;;7.30;5.10;;;3.60;99.90;;;;;;4920930;29;20236;-80
2022/11/26 01:21:41;;;;;;;5.37;4.70;;;3.50;99.90;;;;;;4920687;29;20170;-78
2022/11/26 01:24:07;;;;;;;6.60;5.23;;;3.40;99.90;;;;;;4920713;29;20191;-83
2022/11/26 01:26:39;;;;;;;6.20;5.03;;;3.50;99.90;;;;;;4920581;29;20281;-83
2022/11/26 01:29:05;;;;;;;6.17;5.10;;;3.50;99.90;;;;;;4923399;29;20250;-83
2022/11/26 01:31:32;;;;;;;5.73;5.07;;;3.40;99.90;;;;;;4921359;29;20183;-81
2022/11/26 01:33:57;;;;;;;6.03;4.90;;;3.40;99.90;;;;;;4923172;29;20180;-81
2022/11/26 01:36:31;;;;;;;6.87;4.43;;;3.50;99.90;;;;;;4928950;29;20186;-82
2022/11/26 01:39:00;;;;;;;5.63;4.77;;;3.50;99.90;;;;;;4923453;29;20198;-82
2022/11/26 01:41:50;;;;;;;5.00;4.50;;;3.60;99.90;;;;;;4923244;29;20633;-83
2022/11/26 01:44:24;;;;;;;5.17;4.67;;;3.50;99.90;;;;;;4922741;29;20261;-83
2022/11/26 01:46:51;;;;;;;5.50;4.50;;;3.50;99.90;;;;;;4920806;29;20205;-82
2022/11/26 01:49:25;;;;;;;5.47;4.63;;;3.50;99.90;;;;;;4920681;29;20181;-84
2022/11/26 01:52:06;;;;;;;6.27;4.10;;;3.50;99.90;;;;;;4919080;29;20187;-83
2022/11/26 01:54:35;;;;;;;5.23;4.73;;;3.40;99.90;;;;;;4920296;29;20668;-82
2022/11/26 01:57:09;;;;;;;5.17;4.67;;;3.60;99.90;;;;;;4922189;29;20206;-81
2022/11/26 01:59:39;;;;;;;6.37;4.60;;;3.50;99.90;;;;;;4918939;29;20232;-84
2022/11/26 02:02:05;;;;;;;5.93;4.60;;;3.50;99.90;;;;;;4919182;29;20533;-82
2022/11/26 02:04:39;;;;;;;5.37;4.23;;;3.50;99.90;;;;;;4920770;29;20704;-83
2022/11/26 02:07:05;;;;;;;5.53;4.37;;;3.50;99.90;;;;;;4918879;29;20706;-83
2022/11/26 02:09:32;;;;;;;4.57;4.17;;;3.50;99.90;;;;;;4920239;29;20179;-85
2022/11/26 02:11:58;;;;;;;5.37;4.23;;;3.40;99.90;;;;;;4918959;29;20637;-82
2022/11/26 02:14:37;;;;;;;5.00;4.50;;;3.40;99.90;;;;;;4918715;29;20196;-83
2022/11/26 02:17:24;;;;;;;5.03;4.50;;;3.50;99.90;;;;;;4919964;29;20531;-84
2022/11/26 02:20:20;;;;;;;5.00;4.40;;;3.30;99.90;;;;;;4920547;29;20212;-82
2022/11/26 02:22:49;;;;;;;4.30;3.90;;;3.40;99.90;;;;;;4924027;29;20188;-83
2022/11/26 02:25:22;;;;;;;4.30;3.90;;;3.50;99.90;;;;;;4922167;29;20246;-83
2022/11/26 02:27:54;;;;;;;4.57;4.20;;;3.40;99.90;;;;;;4921479;29;20205;-82
2022/11/26 02:30:20;;;;;;;4.37;3.97;;;3.40;99.90;;;;;;4920658;29;20626;-84
2022/11/26 02:33:08;;;;;;;4.90;3.57;;;3.30;99.90;;;;;;4920020;29;20191;-82
2022/11/26 02:35:53;;;;;;;4.60;4.20;;;3.20;99.90;;;;;;4919711;29;20208;-80
2022/11/26 02:38:23;;;;;;;4.37;3.97;;;3.10;99.90;;;;;;4919893;29;20199;-83
2022/11/26 02:40:49;;;;;;;4.13;3.70;;;3.10;99.90;;;;;;4919463;29;20530;-83
2022/11/26 02:43:15;;;;;;;3.87;3.53;;;3.10;99.90;;;;;;4918080;29;20188;-83
2022/11/26 02:45:51;;;;;;;3.97;3.67;;;3.20;99.90;;;;;;4919314;29;20173;-81
2022/11/26 02:48:22;;;;;;;4.40;4.00;;;3.40;99.90;;;;;;4919554;29;20195;-82
2022/11/26 02:50:52;;;;;;;4.73;4.20;;;3.40;99.90;;;;;;4919418;29;20169;-82
2022/11/26 02:53:21;;;;;;;6.67;5.90;;;3.50;99.90;;;;;;4919321;29;20168;-83
2022/11/26 02:55:51;;;;;;;7.50;5.37;;;3.50;99.90;;;;;;4919840;29;20221;-83
2022/11/26 02:58:18;;;;;;;8.13;6.33;;;3.50;99.90;;;;;;4925522;29;20169;-82
2022/11/26 03:00:47;;;;;;;7.40;6.17;;;3.40;99.90;;;;;;4912320;29;20252;-82
2022/11/26 03:03:26;;;;;;;8.20;6.57;;;3.40;99.90;;;;;;4919854;29;20233;-83
2022/11/26 03:06:00;;;;;;;9.47;6.33;;;3.40;99.90;;;;;;4919800;29;20165;-82
2022/11/26 03:08:27;;;;;;;9.17;6.30;;;3.40;99.90;;;;;;4920149;29;20652;-82
2022/11/26 03:10:53;;;;;;;8.27;5.73;;;3.40;99.90;;;;;;4919984;29;20192;-82
2022/11/26 03:13:19;;;;;;;8.73;5.73;;;3.50;99.90;;;;;;4919073;29;20174;-82
2022/11/26 03:15:45;;;;;;;5.97;5.37;;;3.60;99.90;;;;;;4918958;29;20250;-82
2022/11/26 03:18:14;;;;;;;5.60;5.07;;;3.60;99.90;;;;;;4918700;29;20184;-81
2022/11/26 03:20:40;;;;;;;6.87;4.73;;;3.60;99.90;;;;;;4919125;29;20207;-82
2022/11/26 03:23:06;;;;;;;4.47;4.07;;;3.50;99.90;;;;;;4918369;29;20198;-79
2022/11/26 03:25:32;;;;;;;4.27;3.83;;;3.50;99.90;;;;;;4919169;29;20176;-81
2022/11/26 03:27:58;;;;;;;4.80;4.30;;;3.40;99.90;;;;;;4930294;29;20256;-83
2022/11/26 03:30:24;;;;;;;6.53;4.20;;;3.40;99.90;;;;;;4936750;29;20272;-82
2022/11/26 03:32:50;;;;;;;4.43;3.77;;;3.40;99.90;;;;;;4929333;29;20221;-81
2022/11/26 03:35:16;;;;;;;3.83;3.43;;;3.30;99.90;;;;;;4920110;29;20175;-82
2022/11/26 03:37:42;;;;;;;5.37;3.90;;;3.30;99.90;;;;;;4922097;29;20249;-83
2022/11/26 03:40:08;;;;;;;3.73;3.43;;;3.40;99.90;;;;;;4918769;29;20172;-84
2022/11/26 03:42:34;;;;;;;3.60;3.30;;;3.40;99.90;;;;;;4917553;29;20584;-83
2022/11/26 03:45:01;;;;;;;4.13;3.60;;;3.40;99.90;;;;;;4918511;29;20185;-84
2022/11/26 03:47:27;;;;;;;4.77;3.83;;;3.40;99.90;;;;;;4918466;29;20272;-83
2022/11/26 03:49:53;;;;;;;4.70;3.73;;;3.50;99.90;;;;;;4916865;29;20280;-84
2022/11/26 03:52:24;;;;;;;4.00;3.70;;;3.50;99.90;;;;;;4918208;29;20687;-83
2022/11/26 03:54:50;;;;;;;4.43;4.03;;;3.50;99.90;;;;;;4917149;29;20665;-83
2022/11/26 03:57:16;;;;;;;3.60;3.30;;;3.70;99.90;;;;;;4918924;29;20184;-83
2022/11/26 03:59:42;;;;;;;3.97;3.60;;;3.80;99.90;;;;;;4939559;29;20236;-83
2022/11/26 04:02:08;;;;;;;4.17;3.77;;;3.90;99.90;;;;;;4956185;29;20222;-81
2022/11/26 04:04:34;;;;;;;3.30;3.00;;;4.00;99.90;;;;;;4956417;29;20531;-82
2022/11/26 04:07:00;;;;;;;3.20;3.00;;;4.10;99.90;;;;;;4956217;29;20342;-84
2022/11/26 04:09:26;;;;;;;4.50;4.10;;;4.10;99.90;;;;;;4939281;29;20283;-83
2022/11/26 04:11:51;;;;;;;3.60;3.30;;;4.10;99.90;;;;;;4956186;29;20595;-83
2022/11/26 04:14:17;;;;;;;3.67;3.37;;;4.10;99.90;;;;;;4958400;29;20706;-83
2022/11/26 04:16:43;;;;;;;3.93;3.43;;;4.10;99.90;;;;;;4965341;29;20178;-83
2022/11/26 04:19:09;;;;;;;4.17;3.77;;;4.10;99.90;;;;;;4956073;29;20732;-82
2022/11/26 04:21:35;;;;;;;4.70;3.53;;;4.10;99.90;;;;;;4955869;29;20182;-81
2022/11/26 04:24:01;;;;;;;4.40;3.77;;;4.20;99.90;;;;;;4957384;29;20187;-82
2022/11/26 04:26:26;;;;;;;3.70;3.40;;;4.20;99.90;;;;;;4956215;29;20174;-83
2022/11/26 04:28:52;;;;;;;4.97;3.37;;;4.30;99.90;;;;;;4955595;29;20209;-84
2022/11/26 04:31:19;;;;;;;7.17;5.50;;;4.30;99.90;;;;;;4939372;29;20229;-84
2022/11/26 04:33:45;;;;;;;7.63;5.33;;;4.20;99.90;;;;;;4958078;28;20183;-82
2022/11/26 04:36:10;;;;;;;6.90;4.63;;;4.20;99.90;;;;;;4957421;29;20656;-84
2022/11/26 04:38:37;;;;;;;6.83;4.90;;;4.10;99.90;;;;;;4955666;29;20526;-85
2022/11/26 04:41:03;;;;;;;7.37;5.43;;;4.10;99.90;;;;;;4955955;29;20177;-81
2022/11/26 04:43:29;;;;;;;8.63;5.70;;;4.10;99.90;;;;;;4939590;29;20263;-82
2022/11/26 04:45:55;;;;;;;5.60;4.80;;;4.10;99.90;;;;;;4944947;29;20190;-84
2022/11/26 04:48:20;;;;;;;8.00;5.00;;;4.00;99.90;;;;;;4957053;29;20207;-84
2022/11/26 04:50:48;;;;;;;5.53;5.00;;;4.10;99.90;;;;;;4959216;29;20175;-83
2022/11/26 04:53:15;;;;;;;6.83;4.67;;;4.20;99.90;;;;;;4956246;29;20670;-83
2022/11/26 04:55:41;;;;;;;5.33;4.57;;;4.10;99.90;;;;;;4955555;29;20203;-82
2022/11/26 04:58:07;;;;;;;4.90;4.40;;;4.10;99.90;;;;;;4956470;29;20179;-84
2022/11/26 05:00:33;;;;;;;6.20;5.27;;;4.00;99.90;;;;;;4955623;29;20231;-83
2022/11/26 05:02:58;;;;;;;7.83;5.27;;;4.00;99.90;;;;;;4955496;29;20179;-81
2022/11/26 05:05:24;;;;;;;5.93;5.33;;;4.00;99.90;;;;;;4956068;29;20171;-82
2022/11/26 05:07:50;;;;;;;6.90;6.20;;;4.00;99.90;;;;;;4957812;29;20539;-82
2022/11/26 05:10:16;;;;;;;8.47;6.57;;;4.00;99.90;;;;;;4957594;29;20313;-82
2022/11/26 05:12:44;;;;;;;9.60;6.60;;;3.90;99.90;;;;;;4957531;29;20214;-82
2022/11/26 05:15:10;;;;;;;8.63;6.93;;;4.00;99.90;;;;;;4957959;29;20258;-82
2022/11/26 05:17:36;;;;;;;8.20;6.80;;;3.90;99.90;;;;;;4964067;29;20203;-82
2022/11/26 05:20:03;;;;;;;9.73;6.77;;;3.90;99.90;;;;;;4970587;29;20170;-81
2022/11/26 05:22:29;;;;;;;13.30;7.60;;;4.00;99.90;;;;;;4957771;29;20492;-84
2022/11/26 05:24:57;;;;;;;12.20;7.70;;;3.90;99.90;;;;;;4956015;29;20232;-82
2022/11/26 05:27:23;;;;;;;9.53;7.07;;;3.90;99.90;;;;;;4955613;29;20686;-84
2022/11/26 05:29:49;;;;;;;8.37;7.07;;;3.90;99.90;;;;;;4956500;29;20211;-81
2022/11/26 05:32:18;;;;;;;11.13;7.93;;;3.90;99.90;;;;;;4966669;29;20195;-82
2022/11/26 05:34:44;;;;;;;10.13;7.40;;;3.80;99.90;;;;;;4955954;29;20179;-83
2022/11/26 05:37:10;;;;;;;10.67;7.50;;;3.80;99.90;;;;;;4955329;29;20204;-83
2022/11/26 05:39:36;;;;;;;11.93;7.27;;;3.80;99.90;;;;;;4955126;29;20323;-82
2022/11/26 05:42:02;;;;;;;9.87;7.37;;;3.80;99.90;;;;;;4955309;29;20246;-81
2022/11/26 05:44:27;;;;;;;7.67;6.63;;;3.70;99.90;;;;;;4938082;28;20185;-83
2022/11/26 05:46:53;;;;;;;8.53;6.47;;;3.80;99.90;;;;;;4958204;29;20659;-83
2022/11/26 05:49:19;;;;;;;8.33;6.40;;;3.80;99.90;;;;;;4959034;29;20187;-82
2022/11/26 05:51:45;;;;;;;7.73;6.70;;;3.70;99.90;;;;;;4959958;29;20218;-84
2022/11/26 05:54:13;;;;;;;9.00;7.37;;;3.80;99.90;;;;;;4961098;29;20191;-83
2022/11/26 05:56:40;;;;;;;9.90;7.07;;;3.80;99.90;;;;;;4958527;29;20542;-82
2022/11/26 05:59:06;;;;;;;11.10;7.67;;;3.70;99.90;;;;;;4958217;29;20221;-84
2022/11/26 06:01:32;;;;;;;11.80;7.83;;;3.70;99.90;;;;;;4958611;29;20182;-83
2022/11/26 06:03:58;;;;;;;12.47;7.17;;;3.70;99.90;;;;;;4960784;29;20176;-82
2022/11/26 06:06:23;;;;;;;8.73;6.70;;;3.70;99.90;;;;;;4958082;29;20637;-82
2022/11/26 06:08:50;;;;;;;9.77;6.40;;;3.60;99.90;;;;;;4957970;29;20213;-82
2022/11/26 06:11:16;;;;;;;9.83;6.67;;;3.70;99.90;;;;;;4958192;29;20181;-82
2022/11/26 06:13:42;;;;;;;8.63;6.93;;;3.70;99.90;;;;;;4959008;29;20175;-78
2022/11/26 06:16:08;;;;;;;9.53;7.47;;;3.70;99.90;;;;;;4959018;29;20259;-80
2022/11/26 06:18:38;;;;;;;8.67;6.83;;;3.80;99.90;;;;;;4958503;29;20733;-81
2022/11/26 06:21:06;;;;;;;10.97;7.60;;;3.70;99.90;;;;;;4958158;29;20181;-83
2022/11/26 06:23:33;;;;;;;13.03;8.67;;;3.80;99.90;;;;;;4957728;29;20519;-84
2022/11/26 06:25:59;;;;;;;11.17;7.17;;;3.80;99.90;;;;;;4958134;29;20177;-82
2022/11/26 06:28:25;;;;;;;14.83;9.63;;;3.80;99.90;;;;;;4940381;29;20217;-80
2022/11/26 06:30:55;;;;;;;15.20;9.27;;;3.90;99.90;;;;;;4958311;29;20182;-82
2022/11/26 06:33:21;;;;;;;12.43;8.00;;;3.90;99.90;;;;;;4940753;29;20186;-82
2022/11/26 06:35:47;;;;;;;13.17;9.50;;;3.90;99.90;;;;;;4957937;29;20190;-82
2022/11/26 06:38:13;;;;;;;13.37;9.27;;;3.80;99.90;;;;;;4941040;29;20185;-83
2022/11/26 06:40:39;;;;;;;14.53;8.93;;;3.90;99.90;;;;;;4957606;29;20237;-83
2022/11/26 06:43:04;;;;;;;11.33;8.33;;;3.90;99.90;;;;;;4960632;29;20535;-83
2022/11/26 06:45:30;;;;;;;13.57;8.27;;;3.80;99.90;;;;;;4959489;29;20176;-83
2022/11/26 06:47:56;;;;;;;14.07;8.40;;;3.90;99.90;;;;;;4976273;29;20214;-82
2022/11/26 06:50:22;;;;;;;11.43;8.07;;;3.80;99.90;;;;;;4960744;29;20199;-83
2022/11/26 06:52:54;;;;;;;14.87;7.60;;;3.80;99.90;;;;;;4940603;29;20211;-83
2022/11/26 06:55:23;;;;;;;10.63;7.67;;;3.80;99.90;;;;;;4957701;29;20587;-82
2022/11/26 06:57:50;;;;;;;14.80;7.83;;;3.80;99.90;;;;;;4956906;28;20227;-82
2022/11/26 07:00:17;;;;;;;8.73;6.83;;;3.80;99.90;;;;;;4958045;29;20258;-80
2022/11/26 07:02:42;;;;;;;8.93;7.17;;;3.90;99.90;;;;;;4958732;29;20171;-79
2022/11/26 07:05:08;;;;;;;9.30;7.50;;;4.00;99.90;;;;;;4941863;29;20234;-82
2022/11/26 07:07:38;;;;;;;11.47;7.70;;;4.00;99.90;;;;;;4962140;29;20242;-84
2022/11/26 07:10:04;;;;;;;10.90;8.27;;;4.10;99.90;;;;;;4968939;29;20235;-81
2022/11/26 07:12:30;;;;;;;9.67;6.53;;;4.20;99.90;;;;;;4957481;29;20183;-85
2022/11/26 07:14:56;;;;;;;11.30;7.70;;;4.30;99.90;;;;;;4957369;29;20535;-82
2022/11/26 07:17:22;;;;;;;10.87;7.43;;;4.30;99.90;;;;;;4960749;29;20223;-83
2022/11/26 07:19:48;;;;;;;9.53;7.00;;;4.40;99.90;;;;;;4940535;29;20233;-83
2022/11/26 07:22:14;;;;;;;10.13;7.40;;;4.50;99.90;;;;;;4959347;29;20647;-84
2022/11/26 07:24:40;;;;;;;14.47;8.10;;;4.60;99.90;;;;;;4956814;29;20182;-82
2022/11/26 07:27:07;;;;;;;12.17;8.30;;;4.70;99.90;;;;;;4956847;29;20269;-82
2022/11/26 07:29:33;;;;;;;12.17;8.40;;;4.70;99.90;;;;;;4939798;29;20190;-82
2022/11/26 07:31:59;;;;;;;10.60;7.33;;;4.60;99.90;;;;;;4960302;29;20257;-83
2022/11/26 07:34:24;;;;;;;8.73;7.63;;;4.50;99.90;;;;;;4956602;29;20180;-82
2022/11/26 07:36:50;;;;;;;12.00;6.93;;;4.50;99.90;;;;;;4956381;29;20651;-79
2022/11/26 07:39:16;;;;;;;9.47;6.70;;;4.60;99.90;;;;;;4956724;29;20268;-82
2022/11/26 07:41:42;;;;;;;8.47;6.60;;;4.70;99.90;;;;;;4956687;29;20207;-81
2022/11/26 07:44:12;;;;;;;8.67;6.60;;;4.80;99.90;;;;;;4956983;29;20175;-81
2022/11/26 07:46:40;;;;;;;9.47;7.30;;;4.90;99.90;;;;;;4957794;29;20627;-83
2022/11/26 07:49:07;;;;;;;10.20;6.60;;;5.00;99.90;;;;;;4956419;29;20214;-81
2022/11/26 07:51:35;;;;;;;14.43;7.30;;;5.00;99.90;;;;;;4957027;29;20180;-80
2022/11/26 07:54:04;;;;;;;11.63;8.27;;;5.10;99.90;;;;;;4955998;29;20176;-81
2022/11/26 07:56:30;;;;;;;14.03;8.70;;;5.00;99.90;;;;;;4956183;29;20171;-79
2022/11/26 07:58:56;;;;;;;11.03;8.13;;;5.20;99.90;;;;;;4956227;29;20688;-81
2022/11/26 08:01:28;;;;;;;13.87;8.90;;;5.30;99.90;;;;;;4956320;29;20651;-81
2022/11/26 08:03:55;;;;;;;9.07;7.53;;;5.40;99.90;;;;;;4961789;29;20187;-80
2022/11/26 08:06:23;;;;;;;12.53;8.27;;;5.50;99.90;;;;;;4960412;29;20175;-80
2022/11/26 08:08:49;;;;;;;10.20;7.40;;;5.60;99.90;;;;;;4955648;28;20297;-81
2022/11/26 08:11:24;;;;;;;15.97;8.87;;;5.70;99.90;;;;;;4956552;29;20231;-82
2022/11/26 08:14:05;;;;;;;10.93;8.63;;;5.80;99.90;;;;;;4956063;29;20227;-79
2022/11/26 08:16:31;;;;;;;12.37;8.50;;;6.00;99.90;;;;;;4955988;29;20210;-81
2022/11/26 08:19:01;;;;;;;9.73;7.33;;;6.00;99.90;;;;;;4939031;29;20186;-77
2022/11/26 08:21:27;;;;;;;8.97;7.30;;;6.10;99.90;;;;;;4957527;29;20231;-82
2022/11/26 08:23:53;;;;;;;9.13;7.73;;;6.00;99.90;;;;;;4955952;29;20179;-81
2022/11/26 08:26:19;;;;;;;10.37;7.67;;;6.10;99.90;;;;;;4958449;29;20685;-80
2022/11/26 08:28:46;;;;;;;6.90;6.20;;;6.10;99.90;;;;;;4957389;29;20249;-82
2022/11/26 08:31:14;;;;;;;8.00;6.70;;;6.10;99.90;;;;;;4941691;29;20640;-82
2022/11/26 08:33:40;;;;;;;8.00;7.20;;;6.10;99.90;;;;;;4938323;29;20282;-83
2022/11/26 08:36:07;;;;;;;7.50;6.63;;;6.10;99.90;;;;;;4955939;29;20179;-83
2022/11/26 08:38:34;;;;;;;9.40;6.77;;;6.20;99.90;;;;;;4939321;29;20212;-83
2022/11/26 08:41:02;;;;;;;6.70;5.90;;;6.40;99.90;;;;;;4955900;29;20185;-81
2022/11/26 08:43:28;;;;;;;6.77;5.50;;;6.40;99.90;;;;;;4938407;29;20185;-83
2022/11/26 08:45:56;;;;;;;6.73;6.03;;;6.40;99.90;;;;;;4955760;29;20182;-82
2022/11/26 08:48:22;;;;;;;6.97;5.63;;;6.50;99.90;;;;;;4956109;29;20272;-82
2022/11/26 08:50:48;;;;;;;6.10;5.40;;;6.60;99.90;;;;;;4957700;29;20177;-84
2022/11/26 08:53:14;;;;;;;5.90;5.10;;;6.70;99.90;;;;;;4941625;29;20197;-78
2022/11/26 08:55:40;;;;;;;7.47;5.13;;;6.70;99.90;;;;;;4957869;29;20176;-78
2022/11/26 08:58:06;;;;;;;5.63;4.90;;;6.70;99.90;;;;;;4958105;29;20538;-80
2022/11/26 09:00:32;;;;;;;6.70;5.20;;;6.70;99.90;;;;;;4962013;29;20312;-81
2022/11/26 09:02:59;;;;;;;5.50;5.00;;;6.70;99.90;;;;;;4956280;29;20220;-84
2022/11/26 09:05:25;;;;;;;6.57;5.30;;;6.80;99.90;;;;;;4955960;29;20183;-83
2022/11/26 09:07:51;;;;;;;10.07;6.30;;;6.80;99.90;;;;;;4955555;29;20269;-80
2022/11/26 09:10:17;;;;;;;7.37;5.80;;;6.90;99.90;;;;;;4955304;29;20174;-81
2022/11/26 09:12:42;;;;;;;9.03;6.60;;;7.00;99.90;;;;;;4955247;29;20175;-80
2022/11/26 09:15:11;;;;;;;7.60;6.07;;;7.00;99.90;;;;;;4955603;29;20262;-84
2022/11/26 09:17:37;;;;;;;7.27;6.47;;;7.10;99.90;;;;;;4955928;29;20171;-82
2022/11/26 09:20:03;;;;;;;11.53;6.57;;;7.10;99.90;;;;;;4958247;28;20235;-81
2022/11/26 09:22:29;;;;;;;7.07;6.30;;;7.10;99.90;;;;;;4949217;29;20179;-79
2022/11/26 09:24:55;;;;;;;7.90;6.70;;;7.10;99.90;;;;;;4958515;29;20253;-80
2022/11/26 09:27:21;;;;;;;8.93;6.37;;;7.00;99.90;;;;;;4958221;29;20264;-80
2022/11/26 09:29:50;;;;;;;7.13;5.83;;;7.00;99.90;;;;;;4958288;29;20183;-81
2022/11/26 09:32:16;;;;;;;6.93;6.10;;;6.90;99.90;;;;;;4941262;29;20185;-82
2022/11/26 09:34:42;;;;;;;8.20;6.50;;;7.00;99.90;;;;;;4958349;29;20253;-82
2022/11/26 09:37:08;;;;;;;8.73;6.93;;;7.10;99.90;;;;;;4958180;29;20253;-82
2022/11/26 09:39:34;;;;;;;7.63;6.67;;;7.20;99.90;;;;;;4958166;29;20635;-83
2022/11/26 09:42:04;;;;;;;9.00;7.40;;;7.30;99.90;;;;;;4958882;29;20242;-83
2022/11/26 09:44:53;;;;;;;9.53;7.30;;;7.40;99.90;;;;;;4959767;29;20508;-83
2022/11/26 09:47:27;;;;;;;10.73;6.97;;;7.40;99.90;;;;;;4959064;29;20197;-83
2022/11/26 09:50:05;;;;;;;7.60;6.80;;;7.40;99.90;;;;;;4962476;29;20166;-80
2022/11/26 09:52:36;;;;;;;9.87;6.80;;;7.50;99.90;;;;;;4962310;29;20172;-82
2022/11/26 09:55:16;;;;;;;11.03;6.83;;;7.60;99.90;;;;;;4961399;29;20178;-82
2022/11/26 09:58:03;;;;;;;7.90;7.10;;;7.70;99.90;;;;;;4962303;29;20224;-83
2022/11/26 10:00:33;;;;;;;8.87;6.90;;;7.60;99.90;;;;;;4961548;29;20227;-81
2022/11/26 10:02:59;;;;;;;7.53;6.77;;;7.60;99.90;;;;;;4962221;29;20665;-79
2022/11/26 10:05:41;;;;;;;8.20;7.27;;;7.70;99.90;;;;;;4960522;29;20186;-81
2022/11/26 10:08:24;;;;;;;12.37;7.47;;;7.70;99.90;;;;;;4960954;29;20203;-83
2022/11/26 10:11:24;;;;;;;8.93;7.27;;;7.70;99.90;;;;;;4959862;29;20234;-82
2022/11/26 10:14:22;;;;;;;8.30;7.03;;;7.60;99.90;;;;;;4936847;29;20191;-83
2022/11/26 10:17:19;;;;;;;10.17;7.27;;;7.60;99.90;;;;;;4960382;29;20211;-82
2022/11/26 10:20:22;;;;;;;8.00;6.80;;;7.60;99.90;;;;;;4962593;29;20169;-81
2022/11/26 10:22:51;;;;;;;8.40;6.70;;;7.60;99.90;;;;;;4947099;29;20240;-83
2022/11/26 10:25:23;;;;;;;7.27;5.80;;;7.70;99.90;;;;;;4961647;29;20235;-81
2022/11/26 10:27:52;;;;;;;9.97;6.70;;;7.70;99.90;;;;;;4958418;29;20293;-83
2022/11/26 10:30:19;;;;;;;9.83;6.37;;;7.70;99.90;;;;;;4940833;29;20644;-78
2022/11/26 10:32:47;;;;;;;7.63;6.70;;;7.70;99.90;;;;;;4958086;28;20183;-81
2022/11/26 10:35:18;;;;;;;8.63;6.47;;;7.70;99.90;;;;;;4958391;29;20251;-81
2022/11/26 10:37:44;;;;;;;7.80;6.43;;;7.70;99.90;;;;;;4962525;29;20160;-81
2022/11/26 10:40:49;;;;;;;8.13;6.37;;;7.80;99.90;;;;;;4959790;29;20190;-80
2022/11/26 10:43:22;;;;;;;7.90;6.60;;;7.90;99.90;;;;;;4950356;29;20689;-80
2022/11/26 10:45:51;;;;;;;7.40;6.70;;;8.00;99.90;;;;;;4960720;29;20172;-81
2022/11/26 10:48:26;;;;;;;8.53;6.63;;;7.90;99.90;;;;;;4960587;29;20208;-80
2022/11/26 10:51:00;;;;;;;7.03;6.37;;;8.00;99.90;;;;;;4969997;29;20236;-82
2022/11/26 10:53:28;;;;;;;7.37;6.50;;;8.10;99.90;;;;;;4941864;29;20271;-83
2022/11/26 10:55:58;;;;;;;8.17;7.10;;;8.20;99.90;;;;;;4959810;29;20228;-80
2022/11/26 10:58:39;;;;;;;8.83;7.30;;;8.30;99.90;;;;;;4940689;29;20186;-83
2022/11/26 11:01:06;;;;;;;8.43;7.43;;;8.40;99.90;;;;;;4957368;29;20200;-82
2022/11/26 11:03:38;;;;;;;10.47;7.27;;;8.60;99.90;;;;;;4956903;29;20258;-83
2022/11/26 11:06:17;;;;;;;8.13;6.47;;;8.70;99.90;;;;;;4956862;29;20174;-82
2022/11/26 11:08:44;;;;;;;8.53;5.47;;;8.90;99.90;;;;;;4956733;29;20404;-83
2022/11/26 11:11:28;;;;;;;5.93;5.27;;;9.00;99.90;;;;;;4956581;29;20262;-81
2022/11/26 11:13:55;;;;;;;9.93;6.13;;;9.10;99.90;;;;;;4939634;29;20193;-83
2022/11/26 11:16:30;;;;;;;8.80;5.77;;;9.20;99.90;;;;;;4956421;29;20175;-84
2022/11/26 11:18:59;;;;;;;7.10;5.63;;;9.20;99.90;;;;;;4939199;29;20660;-82
2022/11/26 11:21:33;;;;;;;7.73;6.07;;;9.30;99.90;;;;;;4956484;29;20668;-82
2022/11/26 11:24:27;;;;;;;7.53;6.00;;;9.30;99.90;;;;;;4956483;29;20157;-82
2022/11/26 11:26:56;;;;;;;9.23;6.47;;;9.20;99.90;;;;;;4939121;29;20183;-83
2022/11/26 11:29:28;;;;;;;6.83;6.13;;;9.10;99.90;;;;;;4941740;29;20182;-81
2022/11/26 11:31:55;;;;;;;9.80;7.17;;;9.00;99.90;;;;;;4957577;29;20628;-81
2022/11/26 11:34:28;;;;;;;12.87;7.63;;;8.90;99.90;;;;;;4956543;29;20246;-83
2022/11/26 11:36:59;;;;;;;8.27;7.40;;;8.70;99.90;;;;;;4956373;29;20175;-80
2022/11/26 11:39:30;;;;;;;8.20;7.30;;;8.70;99.90;;;;;;4956274;29;20176;-80
2022/11/26 11:41:58;;;;;;;8.97;7.03;;;8.70;99.90;;;;;;4956597;29;20175;-80
2022/11/26 11:44:43;;;;;;;10.43;7.37;;;8.70;99.90;;;;;;4956127;28;20531;-83
2022/11/26 11:47:38;;;;;;;9.27;8.00;;;8.70;99.90;;;;;;4962744;29;20230;-82
2022/11/26 11:50:12;;;;;;;10.10;7.60;;;8.70;99.90;;;;;;4949623;29;20218;-83
2022/11/26 11:52:59;;;;;;;11.57;7.57;;;8.80;99.90;;;;;;4958612;29;20228;-81
2022/11/26 11:55:31;;;;;;;10.00;7.43;;;9.00;99.90;;;;;;4959511;29;20178;-82
2022/11/26 11:58:22;;;;;;;8.43;7.57;;;9.20;99.90;;;;;;4959529;29;20256;-82
2022/11/26 12:00:50;;;;;;;9.00;7.70;;;9.40;99.90;;;;;;4956606;29;20638;-81
2022/11/26 12:03:48;;;;;;;7.93;6.70;;;9.50;99.90;;;;;;4956092;29;20221;-83
2022/11/26 12:06:38;;;;;;;7.47;6.57;;;9.70;99.90;;;;;;4955838;29;20174;-82
2022/11/26 12:09:10;;;;;;;11.40;6.53;;;9.70;99.90;;;;;;4955737;29;20696;-81
2022/11/26 12:11:58;;;;;;;7.47;6.30;;;9.70;99.90;;;;;;4956549;29;20198;-82
2022/11/26 12:14:31;;;;;;;6.60;5.90;;;9.70;99.90;;;;;;4955480;29;20168;-82
2022/11/26 12:17:25;;;;;;;7.27;6.53;;;9.60;99.90;;;;;;4955504;29;20167;-81
2022/11/26 12:20:04;;;;;;;6.77;6.03;;;9.50;99.90;;;;;;4954795;29;20650;-81
2022/11/26 12:23:03;;;;;;;8.30;6.77;;;9.50;99.90;;;;;;4938249;29;20579;-81
2022/11/26 12:25:35;;;;;;;7.40;6.23;;;9.50;99.90;;;;;;4950938;29;20183;-80
2022/11/26 12:28:10;;;;;;;6.67;5.73;;;9.60;99.90;;;;;;4956021;29;20306;-82
2022/11/26 12:30:47;;;;;;;7.83;5.97;;;9.60;99.90;;;;;;4956424;29;20179;-79
2022/11/26 12:33:24;;;;;;;6.97;5.83;;;9.70;99.90;;;;;;4957144;29;20193;-80
2022/11/26 12:35:57;;;;;;;6.20;4.97;;;9.70;99.90;;;;;;4940196;29;20217;-81
2022/11/26 12:38:29;;;;;;;5.97;5.37;;;9.80;99.90;;;;;;4958307;29;20538;-82
2022/11/26 12:41:03;;;;;;;5.57;4.90;;;9.80;99.90;;;;;;4945505;29;20179;-82
2022/11/26 12:43:34;;;;;;;6.03;5.17;;;9.80;99.90;;;;;;4969928;29;20166;-82
2022/11/26 12:46:40;;;;;;;5.17;4.60;;;9.80;99.90;;;;;;4955661;29;20182;-82
2022/11/26 12:49:34;;;;;;;5.37;4.83;;;9.90;99.90;;;;;;4952056;29;20577;-82
2022/11/26 12:52:00;;;;;;;8.37;4.77;;;9.90;99.90;;;;;;4955536;29;20170;-83
2022/11/26 12:54:42;;;;;;;8.23;4.67;;;9.90;99.90;;;;;;4954982;28;20178;-81
2022/11/26 12:57:37;;;;;;;4.90;4.30;;;9.90;99.90;;;;;;4958671;29;20176;-82
2022/11/26 13:00:13;;;;;;;5.67;3.90;;;9.90;99.90;;;;;;4942048;29;20238;-80
2022/11/26 13:02:42;;;;;;;8.00;4.27;;;9.90;99.90;;;;;;4959634;29;20626;-83
2022/11/26 13:05:37;;;;;;;5.07;4.57;;;9.90;99.90;;;;;;4961716;29;20225;-84
2022/11/26 13:08:30;;;;;;;5.47;5.00;;;9.90;99.90;;;;;;4922609;29;20233;-81
2022/11/26 13:11:11;;;;;;;6.03;5.43;;;9.80;99.90;;;;;;4962085;29;20170;-82
2022/11/26 13:13:59;;;;;;;6.13;5.63;;;9.80;99.90;;;;;;4964923;29;20194;-81